Time;durP1;ratioP1;P1;durP2;ratioP2;P2;SDS_P1;SDS_P2;PMS_P1;PMS_P2;Temp;Humidity;BMP_temperature;BMP_pressure;BME280_temperature;BME280_humidity;BME280_pressure;Samples;Min_cycle;Max_cycle;Signal;HPM_P1;HPM_P2
2023/03/08 00:01:27;;;;;;;24.00;13.02;;;;;;;6.93;59.57;98376.75;4482291;31;20192;-90
2023/03/08 00:03:53;;;;;;;28.75;13.75;;;;;;;6.73;59.56;98377.53;4456565;32;20370;-89
2023/03/08 00:06:19;;;;;;;29.95;14.02;;;;;;;6.67;59.56;98374.34;4469280;32;20420;-90
2023/03/08 00:08:47;;;;;;;30.30;13.48;;;;;;;6.61;59.55;98385.72;4470287;31;20115;-89
2023/03/08 00:11:12;;;;;;;28.62;13.70;;;;;;;6.78;59.56;98382.50;4469875;31;20088;-89
2023/03/08 00:13:38;;;;;;;25.17;12.40;;;;;;;6.77;59.56;98381.66;4469580;32;20193;-89
2023/03/08 00:19:02;;;;;;;25.77;12.95;;;;;;;6.34;59.54;98387.59;4487710;31;20921;-91
2023/03/08 00:21:27;;;;;;;28.25;13.23;;;;;;;6.18;59.52;98383.91;4465474;32;20151;-90
2023/03/08 00:23:53;;;;;;;31.83;13.57;;;;;;;6.03;59.52;98387.03;4466581;31;20116;-89
2023/03/08 00:26:18;;;;;;;31.20;13.68;;;;;;;6.14;59.53;98385.72;4464110;31;20092;-89
2023/03/08 00:28:45;;;;;;;28.12;13.35;;;;;;;5.99;59.51;98391.47;4485141;31;20131;-89
2023/03/08 00:31:11;;;;;;;25.77;13.38;;;;;;;6.02;59.52;98393.09;4469378;32;20100;-89
2023/03/08 00:33:36;;;;;;;23.87;12.18;;;;;;;5.76;59.51;98394.81;4469501;32;20116;-89
2023/03/08 00:36:23;;;;;;;28.90;13.75;;;;;;;5.70;59.50;98391.59;4469602;32;20883;-89
2023/03/08 00:38:49;;;;;;;30.90;13.50;;;;;;;5.83;59.50;98395.44;4476652;31;20134;-88
2023/03/08 00:41:15;;;;;;;26.80;13.40;;;;;;;5.87;59.51;98392.69;4472457;31;20112;-89
2023/03/08 00:43:41;;;;;;;31.98;14.55;;;;;;;5.80;59.50;98391.22;4469801;32;20115;-88
2023/03/08 00:46:06;;;;;;;30.42;13.73;;;;;;;5.68;59.49;98393.37;4484356;31;20119;-89
2023/03/08 00:48:32;;;;;;;26.00;13.30;;;;;;;5.56;59.49;98386.88;4460910;32;20096;-89
2023/03/08 00:50:57;;;;;;;26.83;13.30;;;;;;;5.55;59.49;98375.72;4479093;31;20172;-89
2023/03/08 00:53:22;;;;;;;24.40;12.70;;;;;;;5.60;59.49;98382.47;4455945;32;20103;-90
2023/03/08 00:55:49;;;;;;;29.15;14.07;;;;;;;5.65;59.50;98385.72;4468970;32;20468;-89
2023/03/08 00:58:17;;;;;;;33.42;14.80;;;;;;;5.40;59.49;98398.59;4482351;32;20096;-88
2023/03/08 01:00:43;;;;;;;22.80;12.48;;;;;;;5.39;59.49;98390.03;4469416;31;20456;-89
2023/03/08 01:03:09;;;;;;;27.05;12.60;;;;;;;5.30;59.47;98394.66;4483874;31;20126;-88
2023/03/08 01:05:39;;;;;;;30.85;12.98;;;;;;;5.36;59.48;98391.88;4471361;31;20116;-89
2023/03/08 01:08:04;;;;;;;;;;;;;;;5.13;59.47;98377.13;4486250;31;20091;-89
2023/03/08 01:10:29;;;;;;;27.95;13.38;;;;;;;4.95;59.46;98388.84;4489714;31;20063;-89
2023/03/08 01:12:55;;;;;;;30.58;14.02;;;;;;;4.98;59.46;98382.78;4474186;32;20104;-88
2023/03/08 01:15:20;;;;;;;29.52;14.90;;;;;;;5.06;59.46;98385.97;4461104;32;20138;-88
2023/03/08 01:17:46;;;;;;;33.70;15.15;;;;;;;5.23;59.47;98381.97;4467655;32;20494;-90
2023/03/08 01:20:14;;;;;;;29.75;15.38;;;;;;;5.18;59.47;98395.88;4486619;31;20139;-88
2023/03/08 01:22:40;;;;;;;26.00;13.80;;;;;;;5.30;59.47;98398.06;4471097;32;20370;-89
2023/03/08 01:25:05;;;;;;;31.50;16.12;;;;;;;5.19;59.47;98400.97;4473786;32;20130;-89
2023/03/08 01:27:31;;;;;;;31.08;14.85;;;;;;;5.14;59.47;98414.94;4475916;31;20148;-90
2023/03/08 01:29:59;;;;;;;30.50;14.40;;;;;;;5.22;59.47;98415.53;4478862;32;20171;-89
2023/03/08 01:32:25;;;;;;;34.90;14.38;;;;;;;5.28;59.47;98417.91;4476892;32;20088;-90
2023/03/08 01:34:50;;;;;;;28.98;13.88;;;;;;;4.98;59.46;98429.22;4486867;31;20130;-87
2023/03/08 01:37:16;;;;;;;30.08;15.23;;;;;;;5.11;59.47;98430.50;4466165;32;20127;-89
2023/03/08 01:39:41;;;;;;;31.23;13.98;;;;;;;5.12;59.47;98429.59;4473430;31;20105;-88
2023/03/08 01:42:07;;;;;;;34.70;15.20;;;;;;;5.27;59.48;98420.56;4486800;32;20104;-88
2023/03/08 01:44:52;;;;;;;32.63;15.63;;;;;;;5.35;59.48;98413.41;4476070;31;20115;-88
2023/03/08 01:47:24;;;;;;;28.20;14.38;;;;;;;5.44;59.48;98419.12;4476171;31;20372;-88
2023/03/08 01:49:51;;;;;;;31.15;14.73;;;;;;;5.48;59.49;98430.19;4460533;32;20100;-88
2023/03/08 01:52:25;;;;;;;34.17;15.95;;;;;;;5.70;59.50;98436.34;4469054;32;20115;-88
2023/03/08 01:54:52;;;;;;;33.30;15.20;;;;;;;5.83;59.51;98445.34;4467695;31;20111;-88
2023/03/08 01:57:24;;;;;;;30.92;15.00;;;;;;;5.75;59.50;98438.75;4473872;31;20251;-88
2023/03/08 01:59:50;;;;;;;33.13;15.27;;;;;;;5.85;59.51;98433.22;4483060;32;112413;-87
2023/03/08 02:02:22;;;;;;;35.42;15.48;;;;;;;6.00;59.52;98433.63;4486735;32;20859;-88
2023/03/08 02:04:48;;;;;;;36.92;15.90;;;;;;;6.19;59.52;98441.59;4474524;32;20144;-88
2023/03/08 02:07:13;;;;;;;37.88;16.73;;;;;;;6.11;59.52;98441.84;4486911;32;20100;-89
2023/03/08 02:09:39;;;;;;;32.88;14.73;;;;;;;6.06;59.52;98448.91;4473772;32;20141;-88
2023/03/08 02:12:06;;;;;;;31.45;15.85;;;;;;;6.21;59.53;98440.63;4471768;32;20144;-89
2023/03/08 02:14:31;;;;;;;30.48;14.85;;;;;;;6.24;59.53;98443.09;4482862;31;20099;-89
2023/03/08 02:16:56;;;;;;;31.90;15.73;;;;;;;6.19;59.52;98442.44;4473898;32;20512;-88
2023/03/08 02:19:33;;;;;;;38.65;16.17;;;;;;;6.31;59.53;98438.56;4458889;32;20112;-89
2023/03/08 02:21:58;;;;;;;38.92;16.25;;;;;;;6.39;59.54;98437.41;4478253;31;20664;-89
2023/03/08 02:24:24;;;;;;;33.35;16.27;;;;;;;6.57;59.54;98441.03;4460271;32;20455;-89
2023/03/08 02:26:58;;;;;;;35.03;16.25;;;;;;;6.57;59.54;98440.19;4457307;31;20187;-89
2023/03/08 02:29:23;;;;;;;44.88;15.32;;;;;;;6.56;59.54;98433.34;4464378;31;20088;-90
2023/03/08 02:31:49;;;;;;;41.90;15.43;;;;;;;6.83;59.56;98431.47;4473563;31;20164;-89
2023/03/08 02:34:14;;;;;;;33.97;14.90;;;;;;;6.81;59.57;98438.44;4461479;32;20128;-90
2023/03/08 02:36:39;;;;;;;35.03;15.23;;;;;;;6.73;59.56;98447.34;4457246;32;20168;-90
2023/03/08 02:39:05;;;;;;;35.78;14.68;;;;;;;6.85;59.56;98448.59;4483258;32;20135;-88
2023/03/08 02:41:30;;;;;;;50.47;15.02;;;;;;;6.83;59.56;98453.00;4469806;32;20089;-88
2023/03/08 02:43:56;;;;;;;45.10;15.75;;;;;;;6.92;59.57;98451.81;4482821;32;20177;-87
2023/03/08 02:46:21;;;;;;;39.28;14.57;;;;;;;6.82;59.56;98460.81;4469626;32;20136;-88
2023/03/08 02:48:46;;;;;;;33.30;14.15;;;;;;;6.74;59.56;98458.53;4469705;32;20541;-88
2023/03/08 02:51:12;;;;;;;30.90;14.65;;;;;;;6.72;59.55;98465.50;4469737;32;20441;-87
2023/03/08 02:53:37;;;;;;;36.20;14.45;;;;;;;6.55;59.55;98473.03;4469785;32;20202;-88
2023/03/08 02:56:03;;;;;;;28.75;14.45;;;;;;;6.54;59.55;98482.53;4483587;31;20136;-88
2023/03/08 02:58:28;;;;;;;28.52;14.45;;;;;;;6.57;59.54;98481.56;4482879;31;20170;-87
2023/03/08 03:00:54;;;;;;;28.27;14.07;;;;;;;6.52;59.55;98480.88;4482930;32;20110;-88
2023/03/08 03:03:19;;;;;;;30.60;13.73;;;;;;;6.44;59.54;98479.44;4483715;31;20468;-88
2023/03/08 03:05:44;;;;;;;25.30;12.32;;;;;;;6.37;59.54;98490.03;4469091;32;20113;-89
2023/03/08 03:08:10;;;;;;;31.08;13.35;;;;;;;6.23;59.53;98489.69;4482796;32;20088;-88
2023/03/08 03:10:36;;;;;;;30.40;13.70;;;;;;;6.32;59.53;98492.78;4472002;31;20088;-87
2023/03/08 03:13:02;;;;;;;27.85;13.95;;;;;;;6.25;59.53;98487.88;4464156;32;20161;-88
2023/03/08 03:15:27;;;;;;;30.17;14.52;;;;;;;6.19;59.52;98494.09;4469848;32;20123;-87
2023/03/08 03:17:53;;;;;;;28.45;13.38;;;;;;;6.30;59.53;98494.56;4467304;31;20167;-87
2023/03/08 03:20:18;;;;;;;38.60;14.90;;;;;;;6.34;59.53;98505.63;4483212;31;20136;-88
2023/03/08 03:22:45;;;;;;;43.40;14.95;;;;;;;6.27;59.52;98512.75;4484150;31;20143;-88
2023/03/08 03:25:11;;;;;;;30.98;15.82;;;;;;;6.21;59.53;98518.16;4482989;31;20125;-88
2023/03/08 03:27:36;;;;;;;32.60;13.90;;;;;;;6.33;59.53;98519.47;4484736;31;20185;-88
2023/03/08 03:30:02;;;;;;;37.03;15.25;;;;;;;6.24;59.53;98527.53;4483413;31;20112;-88
2023/03/08 03:32:28;;;;;;;33.88;14.38;;;;;;;6.29;59.53;98529.06;4469776;32;20124;-88
2023/03/08 03:34:53;;;;;;;38.00;14.27;;;;;;;6.38;59.54;98526.16;4456625;31;20217;-88
2023/03/08 03:37:18;;;;;;;44.35;14.73;;;;;;;6.53;59.55;98522.19;4482910;32;20418;-88
2023/03/08 03:39:44;;;;;;;37.33;13.82;;;;;;;6.54;59.54;98523.03;4469591;32;20112;-90
2023/03/08 03:42:10;;;;;;;36.28;12.98;;;;;;;6.61;59.55;98519.31;4462217;32;20390;-89
2023/03/08 03:44:35;;;;;;;36.17;14.25;;;;;;;6.54;59.55;98507.53;4482744;32;20112;-89
2023/03/08 03:47:00;;;;;;;30.70;13.82;;;;;;;6.32;59.53;98502.25;4469937;32;20118;-89
2023/03/08 03:49:26;;;;;;;29.63;13.75;;;;;;;6.38;59.53;98502.03;4469605;32;20436;-89
2023/03/08 03:51:51;;;;;;;27.50;12.90;;;;;;;6.24;59.53;98496.53;4456833;32;20445;-89
2023/03/08 03:54:17;;;;;;;37.20;14.45;;;;;;;6.06;59.52;98490.25;4479906;32;20417;-90
2023/03/08 03:56:42;;;;;;;28.17;13.93;;;;;;;6.06;59.52;98491.09;4456744;32;20354;-89
2023/03/08 03:59:08;;;;;;;29.67;13.52;;;;;;;6.18;59.52;98478.66;4456373;32;20880;-91
2023/03/08 04:01:33;;;;;;;28.45;13.88;;;;;;;6.10;59.52;98484.06;4462667;32;20384;-89
2023/03/08 04:03:59;;;;;;;27.60;12.73;;;;;;;5.97;59.51;98498.31;4470493;31;20507;-89
2023/03/08 04:06:28;;;;;;;28.27;13.62;;;;;;;5.82;59.50;98504.78;4469436;32;20415;-89
2023/03/08 04:08:55;;;;;;;28.42;14.35;;;;;;;5.68;59.49;98504.38;4469255;32;20389;-89
2023/03/08 04:11:22;;;;;;;24.55;12.35;;;;;;;5.53;59.49;98521.22;4482579;32;20417;-89
2023/03/08 04:13:48;;;;;;;26.12;13.45;;;;;;;5.47;59.48;98521.41;4480235;32;20142;-89
2023/03/08 04:16:23;;;;;;;24.70;14.18;;;;;;;5.52;59.49;98525.53;4466597;31;20131;-90
2023/03/08 04:18:53;;;;;;;23.75;12.65;;;;;;;5.34;59.48;98532.97;4483094;31;20092;-88
2023/03/08 04:21:18;;;;;;;24.40;12.15;;;;;;;5.48;59.49;98523.94;4469711;32;20567;-88
2023/03/08 04:23:44;;;;;;;25.98;12.52;;;;;;;5.38;59.48;98542.31;4482707;31;20104;-88
2023/03/08 04:26:09;;;;;;;26.55;12.00;;;;;;;5.49;59.49;98545.44;4469504;32;20100;-88
2023/03/08 04:28:35;;;;;;;28.08;13.90;;;;;;;5.43;59.48;98546.44;4482522;31;20097;-89
2023/03/08 04:31:13;;;;;;;29.40;14.63;;;;;;;5.36;59.47;98555.25;4469396;32;20150;-89
2023/03/08 04:33:38;;;;;;;27.95;13.07;;;;;;;5.44;59.48;98557.59;4482430;32;20161;-88
2023/03/08 04:36:04;;;;;;;28.00;12.93;;;;;;;5.52;59.49;98561.66;4469139;32;20087;-87
2023/03/08 04:38:32;;;;;;;33.38;14.05;;;;;;;5.64;59.50;98568.16;4485141;31;20651;-90
2023/03/08 04:41:12;;;;;;;33.10;15.27;;;;;;;5.60;59.48;98564.00;4469924;31;20156;-90
2023/03/08 04:43:51;;;;;;;36.28;16.12;;;;;;;5.61;59.50;98560.53;4463639;31;20123;-91
2023/03/08 04:46:18;;;;;;;33.53;15.95;;;;;;;5.44;59.48;98552.44;4456988;32;20171;-90
2023/03/08 04:48:43;;;;;;;38.50;16.83;;;;;;;5.64;59.50;98547.50;4464165;32;20168;-90
2023/03/08 04:51:10;;;;;;;34.17;16.12;;;;;;;5.68;59.49;98553.41;4471037;32;20135;-90
2023/03/08 04:53:35;;;;;;;31.67;15.60;;;;;;;5.67;59.49;98547.41;4479062;31;20515;-89
2023/03/08 04:56:01;;;;;;;36.92;16.27;;;;;;;5.54;59.49;98549.56;4468251;32;20127;-90
2023/03/08 04:58:29;;;;;;;39.30;16.55;;;;;;;5.73;59.50;98542.09;4469920;31;20148;-90
2023/03/08 05:00:55;;;;;;;37.60;15.93;;;;;;;5.67;59.49;98541.41;4469273;31;20170;-87
2023/03/08 05:03:21;;;;;;;42.38;16.87;;;;;;;5.67;59.49;98547.41;4480087;32;20135;-87
2023/03/08 05:05:47;;;;;;;33.67;15.85;;;;;;;5.82;59.50;98541.78;4469810;31;20108;-89
2023/03/08 05:08:13;;;;;;;32.88;15.40;;;;;;;5.51;59.49;98541.06;4482847;32;20221;-89
2023/03/08 05:10:38;;;;;;;36.35;16.25;;;;;;;5.57;59.49;98546.03;4482424;31;20180;-87
2023/03/08 05:13:04;;;;;;;34.80;15.52;;;;;;;5.34;59.47;98541.56;4483995;31;20113;-87
2023/03/08 05:15:29;;;;;;;32.78;15.65;;;;;;;5.43;59.48;98551.59;4481589;32;20141;-87
2023/03/08 05:17:54;;;;;;;34.13;16.42;;;;;;;5.51;59.49;98551.38;4482807;31;20136;-89
2023/03/08 05:20:20;;;;;;;33.83;16.42;;;;;;;5.44;59.48;98552.44;4462464;32;20128;-89
2023/03/08 05:22:45;;;;;;;32.03;15.00;;;;;;;5.46;59.48;98548.09;4473030;31;20468;-90
2023/03/08 05:25:11;;;;;;;30.33;15.27;;;;;;;5.41;59.48;98544.78;4475408;32;20485;-91
2023/03/08 05:27:36;;;;;;;33.00;14.50;;;;;;;5.40;59.48;98554.28;4481472;32;20100;-89
2023/03/08 05:30:03;;;;;;;29.35;14.32;;;;;;;5.28;59.47;98564.12;4482731;32;20223;-88
2023/03/08 05:32:29;;;;;;;29.83;13.88;;;;;;;5.43;59.48;98567.09;4481492;32;20116;-89
2023/03/08 05:34:54;;;;;;;32.20;14.57;;;;;;;5.36;59.48;98565.59;4482332;31;20133;-89
2023/03/08 05:37:20;;;;;;;29.90;13.90;;;;;;;5.15;59.46;98574.78;4488172;31;20436;-89
2023/03/08 05:39:46;;;;;;;26.05;13.18;;;;;;;5.21;59.46;98579.81;4482662;31;20480;-89
2023/03/08 05:42:12;;;;;;;27.92;14.02;;;;;;;5.30;59.47;98586.41;4468297;32;20163;-90
2023/03/08 05:44:37;;;;;;;28.50;13.88;;;;;;;5.32;59.48;98586.38;4466610;32;20088;-88
2023/03/08 05:47:03;;;;;;;34.47;16.05;;;;;;;5.42;59.48;98587.78;4468387;32;20104;-89
2023/03/08 05:49:28;;;;;;;34.47;14.90;;;;;;;5.49;59.49;98597.03;4469564;31;20164;-89
2023/03/08 05:51:54;;;;;;;47.15;19.48;;;;;;;5.59;59.49;98606.19;4468268;32;20163;-88
2023/03/08 05:54:30;;;;;;;48.20;22.10;;;;;;;5.62;59.49;98602.66;4468522;32;20122;-88
2023/03/08 05:56:56;;;;;;;63.03;27.17;;;;;;;5.68;59.50;98605.94;4467134;31;20088;-89
2023/03/08 05:59:21;;;;;;;73.43;30.98;;;;;;;5.79;59.50;98603.84;4483353;32;20153;-88
2023/03/08 06:01:46;;;;;;;93.90;38.92;;;;;;;5.87;59.50;98611.34;4470469;31;20111;-89
2023/03/08 06:04:12;;;;;;;97.25;42.13;;;;;;;5.98;59.50;98611.06;4460914;32;20388;-89
2023/03/08 06:06:37;;;;;;;84.65;35.38;;;;;;;5.97;59.51;98615.38;4483790;31;20343;-90
2023/03/08 06:09:03;;;;;;;81.68;34.50;;;;;;;6.11;59.52;98614.94;4471457;31;20428;-89
2023/03/08 06:11:28;;;;;;;61.80;27.80;;;;;;;6.24;59.52;98618.81;4471057;32;20120;-90
2023/03/08 06:13:54;;;;;;;64.22;26.75;;;;;;;6.30;59.53;98628.09;4471534;32;20112;-89
2023/03/08 06:16:19;;;;;;;63.20;25.45;;;;;;;6.23;59.53;98627.47;4470614;32;20132;-90
2023/03/08 06:18:51;;;;;;;47.47;21.40;;;;;;;6.28;59.54;98632.47;4484709;31;20128;-89
2023/03/08 06:21:17;;;;;;;43.35;19.15;;;;;;;6.40;59.53;98640.69;4484715;31;20118;-88
2023/03/08 06:23:43;;;;;;;40.45;18.10;;;;;;;6.48;59.54;98627.50;4467477;32;20088;-88
2023/03/08 06:26:09;;;;;;;34.28;16.67;;;;;;;6.53;59.54;98637.69;4464623;32;20111;-87
2023/03/08 06:28:35;;;;;;;32.58;14.40;;;;;;;6.72;59.55;98633.59;4485959;31;20108;-88
2023/03/08 06:31:00;;;;;;;29.75;14.77;;;;;;;6.93;59.57;98640.59;4475062;31;20123;-88
2023/03/08 06:33:27;;;;;;;25.50;12.50;;;;;;;7.18;59.59;98634.56;4470146;32;20118;-86
2023/03/08 06:35:59;;;;;;;28.27;12.37;;;;;;;7.46;59.59;98630.06;4467371;31;20087;-86
2023/03/08 06:38:24;;;;;;;26.92;10.80;;;;;;;7.54;59.59;98635.78;4483081;31;20109;-87
2023/03/08 06:40:50;;;;;;;27.15;11.35;;;;;;;7.73;59.61;98635.09;4467189;31;20224;-87
2023/03/08 06:43:15;;;;;;;26.12;12.55;;;;;;;7.71;59.61;98632.56;4470284;32;20156;-88
2023/03/08 06:45:41;;;;;;;24.70;11.73;;;;;;;7.73;59.61;98637.69;4470734;31;20092;-87
2023/03/08 06:48:06;;;;;;;25.05;12.37;;;;;;;8.06;59.62;98641.56;4483125;32;20172;-88
2023/03/08 06:50:32;;;;;;;27.00;12.37;;;;;;;8.04;59.63;98643.34;4456573;31;20156;-88
2023/03/08 06:52:58;;;;;;;30.27;12.18;;;;;;;8.03;59.62;98641.66;4461020;32;20135;-89
2023/03/08 06:55:23;;;;;;;22.23;11.10;;;;;;;8.18;59.63;98651.44;4456168;31;20472;-89
2023/03/08 06:57:48;;;;;;;29.65;13.98;;;;;;;8.23;59.64;98638.28;4482878;32;20500;-87
2023/03/08 07:00:15;;;;;;;26.20;12.85;;;;;;;8.14;59.64;98652.47;4456906;31;20597;-89
2023/03/08 07:02:40;;;;;;;41.78;16.33;;;;;;;8.15;59.64;98661.09;4456763;32;20122;-88
2023/03/08 07:05:07;;;;;;;38.03;16.10;;;;;;;8.32;59.64;98662.13;4469837;31;20092;-88
2023/03/08 07:07:34;;;;;;;28.83;14.77;;;;;;;8.38;59.65;98665.41;4469185;32;20674;-88
2023/03/08 07:09:59;;;;;;;32.63;14.77;;;;;;;8.53;59.66;98657.00;4469471;32;20116;-88
2023/03/08 07:12:25;;;;;;;21.15;10.98;;;;;;;8.61;59.66;98667.91;4471471;31;20422;-88
2023/03/08 07:14:52;;;;;;;20.12;11.00;;;;;;;8.96;59.67;98674.19;4469895;32;20156;-89
2023/03/08 07:17:18;;;;;;;21.70;10.80;;;;;;;9.04;59.69;98677.31;4483034;32;20124;-89
2023/03/08 07:19:44;;;;;;;17.37;9.35;;;;;;;9.25;59.69;98674.72;4467071;31;20138;-89
2023/03/08 07:22:11;;;;;;;23.05;9.82;;;;;;;9.31;59.69;98671.84;4469934;32;20089;-92
2023/03/08 07:24:37;;;;;;;26.30;9.43;;;;;;;9.47;59.70;98684.09;4457094;31;20093;-88
2023/03/08 07:27:03;;;;;;;20.80;9.40;;;;;;;9.60;59.72;98683.53;4459737;32;20135;-89
2023/03/08 07:29:28;;;;;;;21.42;9.93;;;;;;;9.58;59.72;98687.94;4480632;31;20244;-88
2023/03/08 07:31:54;;;;;;;17.90;9.35;;;;;;;9.74;59.72;98678.56;4485886;31;20415;-88
2023/03/08 07:34:19;;;;;;;20.42;8.82;;;;;;;9.83;59.73;98678.12;4470525;31;20135;-89
2023/03/08 07:36:44;;;;;;;25.80;8.90;;;;;;;9.98;59.74;98672.22;4484356;32;20445;-88
2023/03/08 07:39:10;;;;;;;17.60;8.32;;;;;;;10.00;59.73;98677.34;4484069;31;20460;-91
2023/03/08 07:41:35;;;;;;;22.13;8.85;;;;;;;10.25;59.75;98682.25;4456995;32;20583;-89
2023/03/08 07:44:01;;;;;;;19.92;8.52;;;;;;;10.39;59.76;98691.06;4480463;31;20447;-89
2023/03/08 07:46:27;;;;;;;17.55;8.75;;;;;;;10.29;59.75;98702.00;4469834;32;20167;-89
2023/03/08 07:48:52;;;;;;;17.77;8.38;;;;;;;10.45;59.76;98700.38;4480461;31;20163;-90
2023/03/08 07:51:18;;;;;;;13.23;7.75;;;;;;;10.44;59.76;98703.88;4482694;31;20457;-90
2023/03/08 07:53:43;;;;;;;16.65;8.23;;;;;;;10.44;59.76;98709.09;4461848;31;20127;-85
2023/03/08 07:56:09;;;;;;;13.88;7.57;;;;;;;10.48;59.76;98715.00;4480779;31;20392;-86
2023/03/08 07:58:34;;;;;;;14.55;7.60;;;;;;;10.65;59.77;98709.81;4496962;31;20115;-87
2023/03/08 08:01:00;;;;;;;13.90;7.62;;;;;;;10.55;59.76;98716.38;4469993;32;20423;-88
2023/03/08 08:03:25;;;;;;;14.23;7.65;;;;;;;10.56;59.77;98721.50;4457059;32;20166;-87
2023/03/08 08:05:51;;;;;;;14.07;7.43;;;;;;;10.61;59.77;98737.72;4482448;31;20111;-85
2023/03/08 08:08:16;;;;;;;16.40;8.00;;;;;;;10.70;59.78;98726.03;4489407;31;20150;-86
2023/03/08 08:10:42;;;;;;;14.60;7.95;;;;;;;10.62;59.76;98728.16;4483548;31;20495;-84
2023/03/08 08:13:07;;;;;;;13.80;6.97;;;;;;;10.88;59.78;98726.88;4469615;32;20100;-86
2023/03/08 08:15:33;;;;;;;13.38;7.07;;;;;;;10.94;59.79;98730.03;4457011;32;20185;-88
2023/03/08 08:17:58;;;;;;;13.50;6.55;;;;;;;10.77;59.78;98727.41;4460833;31;20636;-93
2023/03/08 08:20:25;;;;;;;15.48;7.30;;;;;;;10.80;59.78;98731.62;4458118;32;20108;-90
2023/03/08 08:22:52;;;;;;;15.13;7.12;;;;;;;10.72;59.77;98734.63;4471305;32;20157;-90
2023/03/08 08:25:49;;;;;;;13.35;7.37;;;;;;;10.74;59.77;98737.97;4469786;32;20162;-89
2023/03/08 08:36:00;;;;;;;;;;;;;;;;;;;;;
2023/03/08 08:38:36;;;;;;;13.52;7.03;;;;;;;11.39;59.82;98718.22;4491999;31;36425;-94
2023/03/08 08:48:50;;;;;;;15.30;7.43;;;;;;;11.88;59.84;98713.91;4524278;26;20060;-94
2023/03/08 08:51:20;;;;;;;20.25;9.82;;;;;;;12.07;59.85;98708.53;4428974;32;20100;-85
2023/03/08 08:53:46;;;;;;;20.88;9.75;;;;;;;12.30;59.87;98715.06;4456575;32;20100;-93
2023/03/08 08:56:12;;;;;;;20.98;10.27;;;;;;;12.47;59.87;98708.91;4435077;32;20126;-87
2023/03/08 08:58:37;;;;;;;20.58;9.55;;;;;;;12.48;59.87;98711.44;4464081;32;20164;-87
2023/03/08 09:01:03;;;;;;;18.90;10.50;;;;;;;12.84;59.89;98702.44;4470010;32;20408;-88
2023/03/08 09:03:28;;;;;;;19.73;10.85;;;;;;;12.88;59.90;98694.34;4467828;32;20143;-88
2023/03/08 09:05:56;;;;;;;21.27;11.60;;;;;;;13.09;59.90;98697.47;4447988;32;20191;-88
2023/03/08 09:08:22;;;;;;;25.75;12.30;;;;;;;13.12;59.91;98693.84;4457251;32;20077;-89
2023/03/08 09:10:47;;;;;;;27.37;13.18;;;;;;;13.25;59.91;98694.84;4441250;32;20134;-89
2023/03/08 09:13:13;;;;;;;24.73;12.82;;;;;;;13.30;59.92;98684.09;4441261;32;20153;-91
2023/03/08 09:15:38;;;;;;;25.65;12.37;;;;;;;13.49;59.93;98690.75;4443984;32;20096;-89
2023/03/08 09:18:04;;;;;;;20.17;10.13;;;;;;;13.60;59.93;98684.00;4454257;32;20176;-90
2023/03/08 09:20:30;;;;;;;20.55;10.30;;;;;;;13.69;59.94;98696.50;4443199;32;20147;-92
2023/03/08 09:22:55;;;;;;;17.70;9.30;;;;;;;13.71;59.93;98697.25;4443754;32;20120;-91
2023/03/08 09:25:22;;;;;;;16.77;9.20;;;;;;;13.96;59.96;98694.81;4427491;32;20108;-90
2023/03/08 09:27:49;;;;;;;18.45;9.73;;;;;;;14.12;59.96;98692.06;4441301;32;20174;-90
2023/03/08 09:30:14;;;;;;;20.98;10.77;;;;;;;14.27;59.97;98691.09;4450810;32;20457;-86
2023/03/08 09:32:40;;;;;;;19.10;10.02;;;;;;;14.20;59.97;98679.34;4455673;32;20111;-88
2023/03/08 09:35:06;;;;;;;20.37;10.57;;;;;;;14.18;59.97;98675.97;4469919;32;20433;-87
2023/03/08 09:37:31;;;;;;;17.90;9.73;;;;;;;14.18;59.97;98682.97;4470269;32;20131;-87
2023/03/08 09:39:57;;;;;;;18.30;9.15;;;;;;;14.21;59.97;98681.03;4438567;32;20179;-88
2023/03/08 09:42:28;;;;;;;22.08;10.85;;;;;;;14.33;59.98;98689.87;4449793;32;20087;-88
2023/03/08 09:45:27;;;;;;;18.33;8.35;;;;;;;14.34;59.98;98691.53;4451681;32;20508;-94
2023/03/08 09:48:07;;;;;;;19.92;10.45;;;;;;;14.56;59.99;98683.19;4452068;32;20175;-91
2023/03/08 09:50:32;;;;;;;;;;;;;;;14.63;60.00;98673.97;4442223;32;20117;-92
2023/03/08 09:53:03;;;;;;;17.17;8.50;;;;;;;14.74;60.00;98674.13;4455735;32;19979;-91
2023/03/08 09:55:30;;;;;;;19.23;8.80;;;;;;;15.02;60.02;98667.87;4431134;32;20146;-92
2023/03/08 09:58:21;;;;;;;19.25;8.38;;;;;;;15.15;60.01;98670.53;4410266;32;20127;-92
2023/03/08 10:00:47;;;;;;;18.25;9.38;;;;;;;15.24;60.02;98672.50;4434657;32;20118;-89
2023/03/08 10:03:31;;;;;;;22.52;10.40;;;;;;;15.13;60.02;98672.38;4443330;32;20153;-93
2023/03/08 10:06:21;;;;;;;18.20;10.07;;;;;;;15.01;60.02;98666.19;4448373;32;20190;-92
2023/03/08 10:08:55;;;;;;;;;;;;;;;15.12;60.02;98660.22;4427207;32;20131;-93
2023/03/08 10:11:30;;;;;;;18.10;8.63;;;;;;;15.25;60.03;98663.69;4435920;32;20014;-92
2023/03/08 10:13:57;;;;;;;14.15;8.40;;;;;;;15.33;60.03;98656.97;4443214;32;20088;-91
2023/03/08 10:16:24;;;;;;;19.12;8.32;;;;;;;15.31;60.02;98652.78;4443992;32;20092;-89
2023/03/08 10:18:53;;;;;;;16.15;9.27;;;;;;;15.40;60.04;98646.09;4433754;32;20807;-92
2023/03/08 10:21:20;;;;;;;17.73;9.10;;;;;;;15.33;60.03;98650.88;4444053;32;20108;-90
2023/03/08 10:23:47;;;;;;;16.25;9.07;;;;;;;15.34;60.03;98642.91;4443920;32;20534;-91
2023/03/08 10:26:13;;;;;;;18.15;8.48;;;;;;;15.38;60.03;98647.94;4431097;32;20116;-89
2023/03/08 10:28:38;;;;;;;16.15;8.45;;;;;;;15.64;60.05;98650.50;4428861;32;20131;-89
2023/03/08 10:31:30;;;;;;;16.80;8.13;;;;;;;15.84;60.05;98653.47;4429747;32;20116;-89
2023/03/08 10:34:09;;;;;;;11.55;7.32;;;;;;;15.97;60.06;98651.66;4448422;32;20111;-88
2023/03/08 10:36:45;;;;;;;16.27;7.15;;;;;;;16.05;60.07;98665.06;4456741;32;20459;-88
2023/03/08 10:39:11;;;;;;;15.18;7.80;;;;;;;15.96;60.07;98666.56;4455901;32;20101;-87
2023/03/08 10:41:43;;;;;;;14.48;7.57;;;;;;;15.80;60.05;98663.34;4443961;32;20089;-88
2023/03/08 10:44:12;;;;;;;12.77;7.15;;;;;;;15.80;60.06;98659.87;4455461;32;20144;-88
2023/03/08 10:46:45;;;;;;;12.23;6.90;;;;;;;15.84;60.06;98667.44;4455433;32;20088;-88
2023/03/08 10:49:15;;;;;;;13.73;7.18;;;;;;;15.96;60.07;98663.09;4442232;32;20092;-89
2023/03/08 10:51:57;;;;;;;12.40;6.82;;;;;;;15.91;60.06;98658.19;4442223;32;20109;-88
2023/03/08 10:54:25;;;;;;;16.33;8.18;;;;;;;15.87;60.06;98641.00;4444855;32;20144;-88
2023/03/08 10:56:53;;;;;;;15.23;7.65;;;;;;;15.92;60.06;98643.28;4442903;32;20626;-89
2023/03/08 10:59:26;;;;;;;15.55;7.28;;;;;;;15.89;60.06;98633.84;4432393;32;20105;-88
2023/03/08 11:01:57;;;;;;;17.45;7.80;;;;;;;15.93;60.07;98637.09;4443182;32;20152;-90
2023/03/08 11:04:23;;;;;;;15.00;7.05;;;;;;;15.83;60.06;98636.03;4439945;32;20097;-88
2023/03/08 11:06:49;;;;;;;13.82;7.15;;;;;;;15.95;60.07;98635.19;4424562;32;20156;-89
2023/03/08 11:09:29;;;;;;;14.25;8.02;;;;;;;16.01;60.08;98636.53;4442146;32;20112;-89
2023/03/08 11:11:55;;;;;;;10.40;5.90;;;;;;;15.99;60.07;98633.19;4443021;32;20564;-92
2023/03/08 11:14:21;;;;;;;13.93;6.95;;;;;;;15.86;60.06;98625.38;4429786;32;20092;-90
2023/03/08 11:17:05;;;;;;;13.23;7.82;;;;;;;16.07;60.07;98623.78;4442478;32;20141;-90
2023/03/08 11:19:49;;;;;;;14.18;6.45;;;;;;;16.11;60.08;98622.66;4470020;32;20354;-90
2023/03/08 11:22:27;;;;;;;9.82;5.82;;;;;;;16.27;60.08;98615.31;4454998;32;20135;-90
2023/03/08 11:25:21;;;;;;;9.80;5.57;;;;;;;16.16;60.08;98611.81;4455427;32;20088;-91
2023/03/08 11:28:07;;;;;;;14.48;6.00;;;;;;;16.22;60.08;98614.81;4443100;32;20198;-92
2023/03/08 11:31:04;;;;;;;12.35;6.35;;;;;;;16.21;60.08;98613.13;4444317;32;20176;-91
2023/03/08 11:33:48;;;;;;;11.55;5.68;;;;;;;16.35;60.09;98611.31;4435723;32;20123;-91
2023/03/08 11:36:44;;;;;;;12.85;5.85;;;;;;;16.51;60.10;98615.28;4438946;32;20094;-92
2023/03/08 11:39:29;;;;;;;11.52;6.12;;;;;;;16.49;60.10;98624.22;4436945;32;20092;-88
2023/03/08 11:42:40;;;;;;;10.18;6.03;;;;;;;16.37;60.10;98612.84;4452547;32;20109;-92
2023/03/08 11:45:33;;;;;;;12.00;6.55;;;;;;;16.24;60.09;98612.91;4426656;32;20164;-91
2023/03/08 11:48:21;;;;;;;12.48;5.93;;;;;;;16.21;60.08;98597.38;4436899;32;20093;-88
2023/03/08 11:51:00;;;;;;;11.63;5.62;;;;;;;16.15;60.08;98591.75;4450870;32;20084;-88